sensor_id;sensor_type;location;lat;lon;timestamp;pressure;altitude;pressure_sealevel;temperature;humidity
76054;BME280;64752;48.870;9.082;2024-02-15T00:01:04;98436.25;;;11.44;100.00
76054;BME280;64752;48.870;9.082;2024-02-15T00:03:30;98442.16;;;11.49;100.00
76054;BME280;64752;48.870;9.082;2024-02-15T00:05:57;98425.94;;;11.41;100.00
76054;BME280;64752;48.870;9.082;2024-02-15T00:08:22;98433.59;;;11.46;100.00
76054;BME280;64752;48.870;9.082;2024-02-15T00:10:50;98431.81;;;11.48;100.00
76054;BME280;64752;48.870;9.082;2024-02-15T00:13:15;98439.41;;;11.54;100.00
76054;BME280;64752;48.870;9.082;2024-02-15T00:15:41;98444.66;;;11.52;100.00
76054;BME280;64752;48.870;9.082;2024-02-15T00:18:06;98432.66;;;11.48;100.00
76054;BME280;64752;48.870;9.082;2024-02-15T00:20:32;98429.09;;;11.52;100.00
76054;BME280;64752;48.870;9.082;2024-02-15T00:23:00;98431.59;;;11.54;100.00
76054;BME280;64752;48.870;9.082;2024-02-15T00:25:26;98431.59;;;11.54;100.00
76054;BME280;64752;48.870;9.082;2024-02-15T00:27:51;98434.16;;;11.55;100.00
76054;BME280;64752;48.870;9.082;2024-02-15T00:30:17;98434.09;;;11.57;100.00
76054;BME280;64752;48.870;9.082;2024-02-15T00:32:42;98430.75;;;11.53;100.00
76054;BME280;64752;48.870;9.082;2024-02-15T00:35:07;98425.66;;;11.50;100.00
76054;BME280;64752;48.870;9.082;2024-02-15T00:37:35;98421.72;;;11.38;100.00
76054;BME280;64752;48.870;9.082;2024-02-15T00:40:00;98428.03;;;11.30;100.00
76054;BME280;64752;48.870;9.082;2024-02-15T00:42:26;98420.25;;;11.30;100.00
76054;BME280;64752;48.870;9.082;2024-02-15T00:44:51;98422.03;;;11.28;100.00
76054;BME280;64752;48.870;9.082;2024-02-15T00:47:17;98418.53;;;11.30;100.00
76054;BME280;64752;48.870;9.082;2024-02-15T00:49:45;98423.66;;;11.32;100.00
76054;BME280;64752;48.870;9.082;2024-02-15T00:52:10;98418.44;;;11.32;100.00
76054;BME280;64752;48.870;9.082;2024-02-15T00:54:35;98421.03;;;11.32;100.00
76054;BME280;64752;48.870;9.082;2024-02-15T00:57:01;98420.25;;;11.30;100.00
76054;BME280;64752;48.870;9.082;2024-02-15T00:59:26;98417.66;;;11.30;100.00
76054;BME280;64752;48.870;9.082;2024-02-15T01:01:52;98426.25;;;11.32;100.00
76054;BME280;64752;48.870;9.082;2024-02-15T01:04:18;98430.56;;;11.33;100.00
76054;BME280;64752;48.870;9.082;2024-02-15T01:06:44;98411.53;;;11.32;100.00
76054;BME280;64752;48.870;9.082;2024-02-15T01:09:10;98413.47;;;11.26;100.00
76054;BME280;64752;48.870;9.082;2024-02-15T01:11:35;98409.16;;;11.25;100.00
76054;BME280;64752;48.870;9.082;2024-02-15T01:14:01;98409.44;;;11.15;100.00
76054;BME280;64752;48.870;9.082;2024-02-15T01:16:27;98414.84;;;11.09;100.00
76054;BME280;64752;48.870;9.082;2024-02-15T01:18:52;98404.66;;;11.03;100.00
76054;BME280;64752;48.870;9.082;2024-02-15T01:21:17;98409.53;;;10.84;100.00
76054;BME280;64752;48.870;9.082;2024-02-15T01:23:44;98410.69;;;10.74;100.00
76054;BME280;64752;48.870;9.082;2024-02-15T01:26:09;98410.16;;;10.63;100.00
76054;BME280;64752;48.870;9.082;2024-02-15T01:28:37;98416.50;;;10.52;100.00
76054;BME280;64752;48.870;9.082;2024-02-15T01:31:02;98413.22;;;10.46;100.00
76054;BME280;64752;48.870;9.082;2024-02-15T01:33:28;98415.31;;;10.33;100.00
76054;BME280;64752;48.870;9.082;2024-02-15T01:35:53;98412.00;;;10.26;100.00
76054;BME280;64752;48.870;9.082;2024-02-15T01:38:18;98414.81;;;10.18;100.00
76054;BME280;64752;48.870;9.082;2024-02-15T01:40:46;98418.50;;;10.10;100.00
76054;BME280;64752;48.870;9.082;2024-02-15T01:43:12;98416.91;;;10.04;100.00
76054;BME280;64752;48.870;9.082;2024-02-15T01:45:37;98421.56;;;9.91;100.00
76054;BME280;64752;48.870;9.082;2024-02-15T01:48:03;98419.78;;;9.93;100.00
76054;BME280;64752;48.870;9.082;2024-02-15T01:50:29;98421.63;;;9.88;100.00
76054;BME280;64752;48.870;9.082;2024-02-15T01:52:56;98418.50;;;9.75;100.00
76054;BME280;64752;48.870;9.082;2024-02-15T01:55:22;98423.88;;;9.68;100.00
76054;BME280;64752;48.870;9.082;2024-02-15T01:57:48;98419.13;;;9.51;100.00
76054;BME280;64752;48.870;9.082;2024-02-15T02:00:23;98418.03;;;9.23;100.00
76054;BME280;64752;48.870;9.082;2024-02-15T02:02:49;98410.47;;;9.14;100.00
76054;BME280;64752;48.870;9.082;2024-02-15T02:05:15;98419.88;;;9.18;100.00
76054;BME280;64752;48.870;9.082;2024-02-15T02:07:40;98418.59;;;8.99;100.00
76054;BME280;64752;48.870;9.082;2024-02-15T02:10:07;98408.19;;;9.00;100.00
76054;BME280;64752;48.870;9.082;2024-02-15T02:12:32;98409.72;;;9.09;100.00
76054;BME280;64752;48.870;9.082;2024-02-15T02:14:58;98408.03;;;9.08;100.00
76054;BME280;64752;48.870;9.082;2024-02-15T02:17:24;98403.50;;;9.18;100.00
76054;BME280;64752;48.870;9.082;2024-02-15T02:19:49;98404.94;;;9.30;100.00
76054;BME280;64752;48.870;9.082;2024-02-15T02:22:16;98402.50;;;9.23;100.00
76054;BME280;64752;48.870;9.082;2024-02-15T02:27:26;98405.97;;;9.22;100.00
76054;BME280;64752;48.870;9.082;2024-02-15T02:29:53;98399.94;;;9.22;100.00
76054;BME280;64752;48.870;9.082;2024-02-15T02:32:18;98397.03;;;9.36;100.00
76054;BME280;64752;48.870;9.082;2024-02-15T02:34:43;98400.84;;;9.21;100.00
76054;BME280;64752;48.870;9.082;2024-02-15T02:37:09;98402.56;;;9.20;100.00
76054;BME280;64752;48.870;9.082;2024-02-15T02:39:35;98401.22;;;9.04;100.00
76054;BME280;64752;48.870;9.082;2024-02-15T02:42:01;98401.59;;;8.87;100.00
76054;BME280;64752;48.870;9.082;2024-02-15T02:44:26;98398.41;;;8.74;100.00
76054;BME280;64752;48.870;9.082;2024-02-15T02:46:51;98406.47;;;8.60;100.00
76054;BME280;64752;48.870;9.082;2024-02-15T02:49:17;98408.97;;;8.63;100.00
76054;BME280;64752;48.870;9.082;2024-02-15T02:51:42;98404.00;;;8.54;100.00
76054;BME280;64752;48.870;9.082;2024-02-15T02:54:08;98407.94;;;8.72;100.00
76054;BME280;64752;48.870;9.082;2024-02-15T02:56:33;98402.09;;;8.64;100.00
76054;BME280;64752;48.870;9.082;2024-02-15T02:58:58;98406.94;;;8.36;100.00
76054;BME280;64752;48.870;9.082;2024-02-15T03:01:24;98404.69;;;8.19;100.00
76054;BME280;64752;48.870;9.082;2024-02-15T03:03:55;98407.81;;;8.35;100.00
76054;BME280;64752;48.870;9.082;2024-02-15T03:06:21;98404.91;;;8.05;100.00
76054;BME280;64752;48.870;9.082;2024-02-15T03:08:47;98404.50;;;7.81;100.00
76054;BME280;64752;48.870;9.082;2024-02-15T03:11:12;98401.97;;;7.78;100.00
76054;BME280;64752;48.870;9.082;2024-02-15T03:13:39;98410.31;;;7.94;100.00
76054;BME280;64752;48.870;9.082;2024-02-15T03:16:05;98402.59;;;7.93;100.00
76054;BME280;64752;48.870;9.082;2024-02-15T03:18:31;98407.00;;;7.84;100.00
76054;BME280;64752;48.870;9.082;2024-02-15T03:20:57;98409.56;;;7.87;100.00
76054;BME280;64752;48.870;9.082;2024-02-15T03:23:22;98405.97;;;7.96;100.00
76054;BME280;64752;48.870;9.082;2024-02-15T03:25:48;98406.44;;;8.17;100.00
76054;BME280;64752;48.870;9.082;2024-02-15T03:28:14;98399.19;;;8.34;100.00
76054;BME280;64752;48.870;9.082;2024-02-15T03:30:41;98405.13;;;8.42;100.00
76054;BME280;64752;48.870;9.082;2024-02-15T03:33:08;98405.09;;;8.41;100.00
76054;BME280;64752;48.870;9.082;2024-02-15T03:35:33;98399.00;;;8.46;100.00
76054;BME280;64752;48.870;9.082;2024-02-15T03:37:59;98392.00;;;8.52;100.00
76054;BME280;64752;48.870;9.082;2024-02-15T03:40:24;98403.09;;;8.57;100.00
76054;BME280;64752;48.870;9.082;2024-02-15T03:42:52;98395.56;;;8.88;100.00
76054;BME280;64752;48.870;9.082;2024-02-15T03:45:18;98391.41;;;9.18;100.00
76054;BME280;64752;48.870;9.082;2024-02-15T03:47:43;98393.72;;;9.31;100.00
76054;BME280;64752;48.870;9.082;2024-02-15T03:50:09;98394.50;;;9.34;100.00
76054;BME280;64752;48.870;9.082;2024-02-15T03:52:35;98392.94;;;9.27;100.00
76054;BME280;64752;48.870;9.082;2024-02-15T03:55:00;98391.19;;;9.27;100.00
76054;BME280;64752;48.870;9.082;2024-02-15T03:57:27;98395.38;;;9.33;100.00
76054;BME280;64752;48.870;9.082;2024-02-15T03:59:53;98395.50;;;9.29;100.00
76054;BME280;64752;48.870;9.082;2024-02-15T04:02:20;98397.81;;;9.39;100.00
76054;BME280;64752;48.870;9.082;2024-02-15T04:04:45;98408.25;;;9.36;100.00
76054;BME280;64752;48.870;9.082;2024-02-15T04:07:15;98404.47;;;9.50;100.00
76054;BME280;64752;48.870;9.082;2024-02-15T04:09:42;98413.13;;;9.49;100.00
76054;BME280;64752;48.870;9.082;2024-02-15T04:12:07;98407.84;;;9.53;100.00
76054;BME280;64752;48.870;9.082;2024-02-15T04:14:34;98403.34;;;9.61;100.00
76054;BME280;64752;48.870;9.082;2024-02-15T04:16:59;98399.97;;;9.58;100.00
76054;BME280;64752;48.870;9.082;2024-02-15T04:19:25;98404.94;;;9.65;100.00
76054;BME280;64752;48.870;9.082;2024-02-15T04:21:50;98409.28;;;9.65;100.00
76054;BME280;64752;48.870;9.082;2024-02-15T04:24:16;98397.91;;;9.71;100.00
76054;BME280;64752;48.870;9.082;2024-02-15T04:26:41;98396.25;;;9.68;100.00
76054;BME280;64752;48.870;9.082;2024-02-15T04:29:07;98406.75;;;9.62;100.00
76054;BME280;64752;48.870;9.082;2024-02-15T04:31:35;98402.22;;;9.70;100.00
76054;BME280;64752;48.870;9.082;2024-02-15T04:34:04;98396.78;;;9.81;100.00
76054;BME280;64752;48.870;9.082;2024-02-15T04:36:30;98400.38;;;9.75;100.00
76054;BME280;64752;48.870;9.082;2024-02-15T04:38:59;98398.53;;;9.80;100.00
76054;BME280;64752;48.870;9.082;2024-02-15T04:41:25;98400.38;;;9.75;100.00
76054;BME280;64752;48.870;9.082;2024-02-15T04:43:50;98391.50;;;9.86;100.00
76054;BME280;64752;48.870;9.082;2024-02-15T04:46:16;98401.91;;;9.84;100.00
76054;BME280;64752;48.870;9.082;2024-02-15T04:48:42;98398.41;;;9.85;100.00
76054;BME280;64752;48.870;9.082;2024-02-15T04:51:08;98400.00;;;9.91;100.00
76054;BME280;64752;48.870;9.082;2024-02-15T04:53:34;98398.13;;;9.96;100.00
76054;BME280;64752;48.870;9.082;2024-02-15T04:56:01;98384.22;;;10.00;100.00
76054;BME280;64752;48.870;9.082;2024-02-15T04:58:32;98393.94;;;9.90;100.00
76054;BME280;64752;48.870;9.082;2024-02-15T05:01:02;98380.78;;;9.98;100.00
76054;BME280;64752;48.870;9.082;2024-02-15T05:03:32;98383.69;;;9.87;100.00
76054;BME280;64752;48.870;9.082;2024-02-15T05:06:00;98379.84;;;10.02;100.00
76054;BME280;64752;48.870;9.082;2024-02-15T05:08:26;98377.44;;;9.94;100.00
76054;BME280;64752;48.870;9.082;2024-02-15T05:10:51;98386.03;;;9.96;100.00
76054;BME280;64752;48.870;9.082;2024-02-15T05:13:21;98376.63;;;9.92;100.00
76054;BME280;64752;48.870;9.082;2024-02-15T05:15:47;98383.53;;;9.93;100.00
76054;BME280;64752;48.870;9.082;2024-02-15T05:18:12;98379.09;;;9.97;100.00
76054;BME280;64752;48.870;9.082;2024-02-15T05:20:38;98373.19;;;9.92;100.00
76054;BME280;64752;48.870;9.082;2024-02-15T05:23:06;98372.22;;;9.96;100.00
76054;BME280;64752;48.870;9.082;2024-02-15T05:25:31;98365.50;;;9.89;100.00
76054;BME280;64752;48.870;9.082;2024-02-15T05:27:58;98371.38;;;9.95;100.00
76054;BME280;64752;48.870;9.082;2024-02-15T05:30:24;98361.84;;;9.96;100.00
76054;BME280;64752;48.870;9.082;2024-02-15T05:32:50;98362.72;;;9.96;100.00
76054;BME280;64752;48.870;9.082;2024-02-15T05:35:17;98359.97;;;10.02;100.00
76054;BME280;64752;48.870;9.082;2024-02-15T05:37:43;98357.69;;;9.90;100.00
76054;BME280;64752;48.870;9.082;2024-02-15T05:40:08;98354.88;;;9.98;100.00
76054;BME280;64752;48.870;9.082;2024-02-15T05:42:43;98355.72;;;10.00;100.00
76054;BME280;64752;48.870;9.082;2024-02-15T05:47:50;98368.66;;;10.00;100.00
76054;BME280;64752;48.870;9.082;2024-02-15T05:50:15;98370.31;;;10.02;100.00
76054;BME280;64752;48.870;9.082;2024-02-15T05:52:40;98367.91;;;9.96;100.00
76054;BME280;64752;48.870;9.082;2024-02-15T05:55:06;98369.50;;;10.00;100.00
76054;BME280;64752;48.870;9.082;2024-02-15T05:57:32;98371.31;;;9.98;100.00
76054;BME280;64752;48.870;9.082;2024-02-15T05:59:58;98375.44;;;10.06;100.00
76054;BME280;64752;48.870;9.082;2024-02-15T06:02:27;98373.69;;;10.06;100.00
76054;BME280;64752;48.870;9.082;2024-02-15T06:04:52;98368.31;;;10.12;100.00
76054;BME280;64752;48.870;9.082;2024-02-15T06:07:18;98373.59;;;10.09;100.00
76054;BME280;64752;48.870;9.082;2024-02-15T06:09:44;98371.69;;;10.16;100.00
76054;BME280;64752;48.870;9.082;2024-02-15T06:12:09;98368.25;;;10.15;100.00
76054;BME280;64752;48.870;9.082;2024-02-15T06:14:34;98370.13;;;10.09;100.00
76054;BME280;64752;48.870;9.082;2024-02-15T06:17:00;98367.44;;;10.13;100.00
76054;BME280;64752;48.870;9.082;2024-02-15T06:19:25;98356.94;;;10.18;100.00
76054;BME280;64752;48.870;9.082;2024-02-15T06:21:51;98364.03;;;10.11;100.00
76054;BME280;64752;48.870;9.082;2024-02-15T06:24:16;98364.97;;;10.09;100.00
76054;BME280;64752;48.870;9.082;2024-02-15T06:26:41;98369.47;;;10.02;100.00
76054;BME280;64752;48.870;9.082;2024-02-15T06:29:07;98365.88;;;10.08;100.00
76054;BME280;64752;48.870;9.082;2024-02-15T06:31:51;98367.41;;;10.15;100.00
76054;BME280;64752;48.870;9.082;2024-02-15T06:34:35;98368.47;;;10.08;100.00
76054;BME280;64752;48.870;9.082;2024-02-15T06:37:35;98361.28;;;10.17;100.00
76054;BME280;64752;48.870;9.082;2024-02-15T06:40:20;98362.34;;;10.10;100.00
76054;BME280;64752;48.870;9.082;2024-02-15T06:42:45;98361.50;;;10.10;100.00
76054;BME280;64752;48.870;9.082;2024-02-15T06:45:11;98362.28;;;10.12;100.00
76054;BME280;64752;48.870;9.082;2024-02-15T06:47:41;98356.91;;;10.19;100.00
76054;BME280;64752;48.870;9.082;2024-02-15T06:50:12;98359.34;;;10.26;100.00
76054;BME280;64752;48.870;9.082;2024-02-15T06:52:39;98359.19;;;10.30;100.00
76054;BME280;64752;48.870;9.082;2024-02-15T06:55:06;98363.41;;;10.34;100.00
76054;BME280;64752;48.870;9.082;2024-02-15T06:57:35;98352.22;;;10.34;100.00
76054;BME280;64752;48.870;9.082;2024-02-15T07:00:03;98366.91;;;10.33;100.00
76054;BME280;64752;48.870;9.082;2024-02-15T07:02:29;98360.75;;;10.37;100.00
76054;BME280;64752;48.870;9.082;2024-02-15T07:04:55;98372.16;;;10.32;100.00
76054;BME280;64752;48.870;9.082;2024-02-15T07:07:20;98357.41;;;10.34;100.00
76054;BME280;64752;48.870;9.082;2024-02-15T07:09:47;98367.84;;;10.31;100.00
76054;BME280;64752;48.870;9.082;2024-02-15T07:12:12;98372.09;;;10.33;100.00
76054;BME280;64752;48.870;9.082;2024-02-15T07:14:37;98360.56;;;10.44;100.00
76054;BME280;64752;48.870;9.082;2024-02-15T07:17:03;98368.56;;;10.36;100.00
76054;BME280;64752;48.870;9.082;2024-02-15T07:19:29;98364.06;;;10.43;100.00
76054;BME280;64752;48.870;9.082;2024-02-15T07:21:58;98355.22;;;10.50;99.38
76054;BME280;64752;48.870;9.082;2024-02-15T07:24:24;98357.28;;;10.68;98.27
76054;BME280;64752;48.870;9.082;2024-02-15T07:26:52;98350.47;;;10.92;96.05
76054;BME280;64752;48.870;9.082;2024-02-15T07:29:20;98340.22;;;11.16;95.24
76054;BME280;64752;48.870;9.082;2024-02-15T07:31:48;98338.72;;;11.87;89.04
76054;BME280;64752;48.870;9.082;2024-02-15T07:34:13;98342.50;;;13.19;82.87
76054;BME280;64752;48.870;9.082;2024-02-15T07:36:39;98342.81;;;13.95;77.35
76054;BME280;64752;48.870;9.082;2024-02-15T07:39:07;98334.00;;;14.76;72.80
76054;BME280;64752;48.870;9.082;2024-02-15T07:41:37;98331.91;;;15.38;70.53
76054;BME280;64752;48.870;9.082;2024-02-15T07:44:02;98325.28;;;14.95;70.22
76054;BME280;64752;48.870;9.082;2024-02-15T07:46:28;98332.81;;;15.90;67.73
76054;BME280;64752;48.870;9.082;2024-02-15T07:48:54;98326.94;;;16.02;65.17
76054;BME280;64752;48.870;9.082;2024-02-15T07:51:22;98329.56;;;15.32;67.29
76054;BME280;64752;48.870;9.082;2024-02-15T07:53:48;98334.34;;;14.69;70.75
76054;BME280;64752;48.870;9.082;2024-02-15T07:56:15;98322.84;;;14.73;71.11
76054;BME280;64752;48.870;9.082;2024-02-15T07:58:41;98322.22;;;14.68;71.83
76054;BME280;64752;48.870;9.082;2024-02-15T08:01:08;98324.25;;;14.80;71.71
76054;BME280;64752;48.870;9.082;2024-02-15T08:03:34;98322.75;;;15.30;68.98
76054;BME280;64752;48.870;9.082;2024-02-15T08:06:01;98316.81;;;15.43;68.28
76054;BME280;64752;48.870;9.082;2024-02-15T08:08:26;98307.91;;;15.48;68.29
76054;BME280;64752;48.870;9.082;2024-02-15T08:10:51;98312.28;;;15.65;66.48
76054;BME280;64752;48.870;9.082;2024-02-15T08:13:17;98322.59;;;15.50;66.90
76054;BME280;64752;48.870;9.082;2024-02-15T08:15:43;98318.25;;;14.78;70.42
76054;BME280;64752;48.870;9.082;2024-02-15T08:18:09;98318.59;;;14.70;71.11
76054;BME280;64752;48.870;9.082;2024-02-15T08:20:37;98322.38;;;14.25;73.83
76054;BME280;64752;48.870;9.082;2024-02-15T08:23:05;98312.25;;;14.38;72.79
76054;BME280;64752;48.870;9.082;2024-02-15T08:25:31;98311.34;;;15.13;70.69
76054;BME280;64752;48.870;9.082;2024-02-15T08:27:56;98304.44;;;15.65;68.07
76054;BME280;64752;48.870;9.082;2024-02-15T08:30:22;98299.97;;;15.84;66.30
76054;BME280;64752;48.870;9.082;2024-02-15T08:32:47;98295.75;;;16.15;65.70
76054;BME280;64752;48.870;9.082;2024-02-15T08:35:13;98309.84;;;16.12;65.50
76054;BME280;64752;48.870;9.082;2024-02-15T08:37:41;98292.06;;;15.68;67.37
76054;BME280;64752;48.870;9.082;2024-02-15T08:40:09;98292.06;;;15.51;69.34
76054;BME280;64752;48.870;9.082;2024-02-15T08:42:39;98282.25;;;15.38;68.77
76054;BME280;64752;48.870;9.082;2024-02-15T08:45:05;98283.13;;;14.85;70.63
76054;BME280;64752;48.870;9.082;2024-02-15T08:47:37;98282.38;;;15.18;70.43
76054;BME280;64752;48.870;9.082;2024-02-15T08:50:03;98275.63;;;15.31;70.13
76054;BME280;64752;48.870;9.082;2024-02-15T08:52:29;98276.16;;;15.20;70.62
76054;BME280;64752;48.870;9.082;2024-02-15T08:54:54;98278.00;;;15.36;70.14
76054;BME280;64752;48.870;9.082;2024-02-15T08:57:20;98273.72;;;15.35;70.03
76054;BME280;64752;48.870;9.082;2024-02-15T08:59:46;98280.00;;;15.48;70.11
76054;BME280;64752;48.870;9.082;2024-02-15T09:02:12;98283.31;;;15.87;67.33
76054;BME280;64752;48.870;9.082;2024-02-15T09:04:39;98278.19;;;16.01;66.96
76054;BME280;64752;48.870;9.082;2024-02-15T09:07:06;98282.22;;;16.40;65.24
76054;BME280;64752;48.870;9.082;2024-02-15T09:09:32;98276.44;;;16.81;62.21
76054;BME280;64752;48.870;9.082;2024-02-15T09:12:01;98286.88;;;17.29;59.71
76054;BME280;64752;48.870;9.082;2024-02-15T09:14:26;98287.25;;;17.82;58.55
76054;BME280;64752;48.870;9.082;2024-02-15T09:16:51;98287.66;;;17.90;57.37
76054;BME280;64752;48.870;9.082;2024-02-15T09:19:17;98293.47;;;18.80;54.42
76054;BME280;64752;48.870;9.082;2024-02-15T09:21:44;98291.59;;;19.36;53.29
76054;BME280;64752;48.870;9.082;2024-02-15T09:24:09;98287.59;;;19.96;50.53
76054;BME280;64752;48.870;9.082;2024-02-15T09:26:34;98278.03;;;19.42;53.96
76054;BME280;64752;48.870;9.082;2024-02-15T09:29:01;98282.53;;;20.06;51.12
76054;BME280;64752;48.870;9.082;2024-02-15T09:31:26;98273.66;;;20.33;50.32
76054;BME280;64752;48.870;9.082;2024-02-15T09:33:52;98272.38;;;20.75;49.53
76054;BME280;64752;48.870;9.082;2024-02-15T09:36:17;98270.69;;;20.25;50.58
76054;BME280;64752;48.870;9.082;2024-02-15T09:38:42;98272.53;;;21.09;47.87
76054;BME280;64752;48.870;9.082;2024-02-15T09:41:08;98271.88;;;20.94;47.83
76054;BME280;64752;48.870;9.082;2024-02-15T09:43:34;98268.22;;;21.44;46.10
76054;BME280;64752;48.870;9.082;2024-02-15T09:46:00;98271.44;;;21.83;45.04
76054;BME280;64752;48.870;9.082;2024-02-15T09:48:29;98255.50;;;22.07;44.59
76054;BME280;64752;48.870;9.082;2024-02-15T09:50:57;98265.06;;;23.61;40.83
76054;BME280;64752;48.870;9.082;2024-02-15T09:53:23;98256.09;;;22.33;43.32
76054;BME280;64752;48.870;9.082;2024-02-15T09:55:53;98262.06;;;24.28;40.75
76054;BME280;64752;48.870;9.082;2024-02-15T09:58:19;98255.47;;;24.22;40.18
76054;BME280;64752;48.870;9.082;2024-02-15T10:00:45;98252.00;;;23.91;40.81
76054;BME280;64752;48.870;9.082;2024-02-15T10:03:16;98248.28;;;23.51;40.44
76054;BME280;64752;48.870;9.082;2024-02-15T10:05:43;98245.88;;;23.69;40.72
76054;BME280;64752;48.870;9.082;2024-02-15T10:08:09;98246.34;;;23.95;39.86
76054;BME280;64752;48.870;9.082;2024-02-15T10:10:36;98244.91;;;23.70;39.67
76054;BME280;64752;48.870;9.082;2024-02-15T10:13:01;98242.06;;;22.87;41.69
76054;BME280;64752;48.870;9.082;2024-02-15T10:17:57;98235.69;;;24.76;38.37
76054;BME280;64752;48.870;9.082;2024-02-15T10:20:26;98224.63;;;24.11;39.02
76054;BME280;64752;48.870;9.082;2024-02-15T10:25:29;98227.41;;;23.79;39.34
76054;BME280;64752;48.870;9.082;2024-02-15T10:28:04;98222.13;;;23.37;39.60
76054;BME280;64752;48.870;9.082;2024-02-15T10:30:33;98222.13;;;23.58;39.31
76054;BME280;64752;48.870;9.082;2024-02-15T10:32:58;98212.81;;;24.15;39.06
76054;BME280;64752;48.870;9.082;2024-02-15T10:35:24;98216.06;;;23.46;40.04
76054;BME280;64752;48.870;9.082;2024-02-15T10:37:50;98210.75;;;24.38;38.48
76054;BME280;64752;48.870;9.082;2024-02-15T10:40:19;98220.28;;;24.51;37.20
76054;BME280;64752;48.870;9.082;2024-02-15T10:42:48;98211.63;;;22.93;39.56
76054;BME280;64752;48.870;9.082;2024-02-15T10:45:17;98216.41;;;24.55;37.27
76054;BME280;64752;48.870;9.082;2024-02-15T10:47:46;98201.53;;;23.82;38.69
76054;BME280;64752;48.870;9.082;2024-02-15T10:50:30;98211.78;;;24.57;37.54
76054;BME280;64752;48.870;9.082;2024-02-15T10:53:07;98213.06;;;25.50;35.28
76054;BME280;64752;48.870;9.082;2024-02-15T10:58:19;98204.34;;;24.41;36.71
76054;BME280;64752;48.870;9.082;2024-02-15T11:00:49;98198.69;;;23.32;38.60
76054;BME280;64752;48.870;9.082;2024-02-15T11:03:24;98196.91;;;22.79;38.93
76054;BME280;64752;48.870;9.082;2024-02-15T11:05:51;98198.75;;;23.84;37.88
76054;BME280;64752;48.870;9.082;2024-02-15T11:08:17;98190.47;;;22.61;39.86
76054;BME280;64752;48.870;9.082;2024-02-15T11:10:43;98180.13;;;23.22;39.16
76054;BME280;64752;48.870;9.082;2024-02-15T11:13:10;98176.59;;;23.95;38.04
76054;BME280;64752;48.870;9.082;2024-02-15T11:15:43;98174.13;;;22.88;41.19
76054;BME280;64752;48.870;9.082;2024-02-15T11:18:50;98176.69;;;22.57;40.79
76054;BME280;64752;48.870;9.082;2024-02-15T11:21:58;98164.66;;;23.48;38.99
76054;BME280;64752;48.870;9.082;2024-02-15T11:24:29;98158.78;;;23.03;39.54
76054;BME280;64752;48.870;9.082;2024-02-15T11:27:03;98161.63;;;23.32;39.78
76054;BME280;64752;48.870;9.082;2024-02-15T11:29:48;98156.13;;;23.66;38.43
76054;BME280;64752;48.870;9.082;2024-02-15T11:35:09;98149.63;;;23.80;38.23
76054;BME280;64752;48.870;9.082;2024-02-15T11:40:20;98140.84;;;22.85;40.74
76054;BME280;64752;48.870;9.082;2024-02-15T11:42:51;98136.63;;;23.15;39.70
76054;BME280;64752;48.870;9.082;2024-02-15T11:45:18;98133.69;;;22.97;40.36
76054;BME280;64752;48.870;9.082;2024-02-15T11:47:47;98141.13;;;24.36;37.75
76054;BME280;64752;48.870;9.082;2024-02-15T11:50:14;98136.25;;;24.32;37.96
76054;BME280;64752;48.870;9.082;2024-02-15T11:52:47;98128.41;;;22.97;39.79
76054;BME280;64752;48.870;9.082;2024-02-15T11:55:17;98126.47;;;24.22;37.72
76054;BME280;64752;48.870;9.082;2024-02-15T11:58:05;98129.06;;;23.93;38.00
76054;BME280;64752;48.870;9.082;2024-02-15T12:00:36;98120.66;;;23.26;39.66
76054;BME280;64752;48.870;9.082;2024-02-15T12:03:21;98118.69;;;23.19;40.30
76054;BME280;64752;48.870;9.082;2024-02-15T12:06:06;98114.47;;;23.37;39.23
76054;BME280;64752;48.870;9.082;2024-02-15T12:08:53;98109.28;;;23.36;38.73
76054;BME280;64752;48.870;9.082;2024-02-15T12:11:38;98119.25;;;24.83;37.34
76054;BME280;64752;48.870;9.082;2024-02-15T12:14:22;98111.22;;;23.95;38.49
76054;BME280;64752;48.870;9.082;2024-02-15T12:17:07;98106.63;;;23.97;38.12
76054;BME280;64752;48.870;9.082;2024-02-15T12:19:52;98102.84;;;22.65;39.94
76054;BME280;64752;48.870;9.082;2024-02-15T12:25:00;98100.78;;;23.32;39.39
76054;BME280;64752;48.870;9.082;2024-02-15T12:27:26;98093.41;;;23.05;39.49
76054;BME280;64752;48.870;9.082;2024-02-15T12:29:59;98094.09;;;22.86;40.54
76054;BME280;64752;48.870;9.082;2024-02-15T12:32:27;98086.13;;;23.28;40.09
76054;BME280;64752;48.870;9.082;2024-02-15T12:34:53;98081.88;;;22.31;40.65
76054;BME280;64752;48.870;9.082;2024-02-15T12:37:33;98065.50;;;20.92;43.81
76054;BME280;64752;48.870;9.082;2024-02-15T12:40:10;98072.28;;;21.30;43.41
76054;BME280;64752;48.870;9.082;2024-02-15T12:42:39;98066.75;;;21.67;43.52
76054;BME280;64752;48.870;9.082;2024-02-15T12:45:04;98061.69;;;22.19;42.17
76054;BME280;64752;48.870;9.082;2024-02-15T12:47:31;98058.28;;;22.40;42.08
76054;BME280;64752;48.870;9.082;2024-02-15T12:49:57;98049.41;;;22.83;41.24
76054;BME280;64752;48.870;9.082;2024-02-15T12:52:41;98049.44;;;22.93;41.83
76054;BME280;64752;48.870;9.082;2024-02-15T12:57:49;98045.78;;;22.84;42.40
76054;BME280;64752;48.870;9.082;2024-02-15T13:00:22;98039.41;;;22.65;42.37
76054;BME280;64752;48.870;9.082;2024-02-15T13:02:53;98038.19;;;21.61;42.75
76054;BME280;64752;48.870;9.082;2024-02-15T13:05:19;98030.13;;;22.18;42.71
76054;BME280;64752;48.870;9.082;2024-02-15T13:07:49;98021.91;;;21.45;43.32
76054;BME280;64752;48.870;9.082;2024-02-15T13:10:15;98029.81;;;21.33;43.63
76054;BME280;64752;48.870;9.082;2024-02-15T13:12:41;98021.47;;;21.83;43.33
76054;BME280;64752;48.870;9.082;2024-02-15T13:15:09;98019.56;;;21.74;43.76
76054;BME280;64752;48.870;9.082;2024-02-15T13:17:40;98015.63;;;22.12;42.29
76054;BME280;64752;48.870;9.082;2024-02-15T13:20:06;98011.19;;;21.80;43.07
76054;BME280;64752;48.870;9.082;2024-02-15T13:22:37;98006.78;;;21.24;45.34
76054;BME280;64752;48.870;9.082;2024-02-15T13:25:06;98001.41;;;21.92;44.08